Puysegur Point, New Zealand
Current Conditions -  °F | °C
As of 8:30 AM on Saturday 22 Nov 2014 (Local Time) from NZCH Reporting Station
Clear Clear  
Wind Chill: 73°   Ceiling: Unl
Heat Index: 73°   Visibility: 6mi
Dew Point: 54°   Wind: 12mph
Humidity: 50%   Direction: 10°N
Pressure: 29.41"   Gusts: NA
Location:  46.16°S, 166.59°E
Report Text: NZCH 212030Z AUTO 01010KT 9999 NCD 23/12 Q0996 NOSIG
Loading
Personal Weather Stations






























Interactive Weather Map New forecast layout! Learn more

10-Day Weather Forecast

Advertisements
Track Severe Weather on mobile